Gibbs, Arkansas
Current Conditions -  °F | °C
As of 11:53 AM on Friday 21 Nov 2014 (Local Time) from KMWT Reporting Station
Light Rain Light Rain  
Wind Chill: 50°   Ceiling: 500
Heat Index: 50°   Visibility: 3mi
Dew Point: 48°   Wind: 5mph
Humidity: 93%   Direction: NA
Pressure: 30.21"   Gusts: NA
Location:  34.668°N, 93.6648°W
Report Text: KMWT 211753Z AUTO VRB04KT 3SM -RA BR OVC005 10/09 A3021 RMK AO2 CIG 003V008 SLP233 P0007 60022 T01000089 10100 20083 56008
Loading
Personal Weather Stations






























Interactive Weather Map New forecast layout! Learn more

10-Day Weather Forecast

Advertisements
Track Severe Weather on mobile